sensor_id;sensor_type;location;lat;lon;timestamp;noise_LAeq;noise_LA_min;noise_LA_max;noise_LA01;noise_LA95
74244;Laerm;62600;55.732;37.662;2022-10-04T00:00:58;56.86;46.30;82.93;;
74244;Laerm;62600;55.732;37.662;2022-10-04T00:02:32;64.25;47.61;88.84;;
74244;Laerm;62600;55.732;37.662;2022-10-04T00:04:09;57.05;46.31;74.08;;
74244;Laerm;62600;55.732;37.662;2022-10-04T00:05:41;58.84;46.14;69.59;;
74244;Laerm;62600;55.732;37.662;2022-10-04T00:08:56;59.22;48.67;80.09;;
74244;Laerm;62600;55.732;37.662;2022-10-04T00:10:31;60.00;48.69;86.61;;
74244;Laerm;62600;55.732;37.662;2022-10-04T00:12:03;67.67;45.29;89.94;;
74244;Laerm;62600;55.732;37.662;2022-10-04T00:13:36;56.61;43.84;83.94;;
74244;Laerm;62600;55.732;37.662;2022-10-04T00:16:50;55.93;45.74;80.43;;
74244;Laerm;62600;55.732;37.662;2022-10-04T00:18:59;62.42;46.17;93.45;;
74244;Laerm;62600;55.732;37.662;2022-10-04T00:22:30;61.90;48.17;86.90;;
74244;Laerm;62600;55.732;37.662;2022-10-04T00:24:18;56.69;48.69;64.08;;
74244;Laerm;62600;55.732;37.662;2022-10-04T00:25:58;55.72;49.42;75.50;;
74244;Laerm;62600;55.732;37.662;2022-10-04T00:27:29;51.90;44.68;70.67;;
74244;Laerm;62600;55.732;37.662;2022-10-04T00:29:27;53.37;44.78;66.86;;
74244;Laerm;62600;55.732;37.662;2022-10-04T00:31:18;49.57;44.62;62.60;;
74244;Laerm;62600;55.732;37.662;2022-10-04T00:33:00;55.54;45.72;80.39;;
74244;Laerm;62600;55.732;37.662;2022-10-04T00:38:07;74.87;47.50;99.35;;
74244;Laerm;62600;55.732;37.662;2022-10-04T00:39:42;58.20;50.87;65.33;;
74244;Laerm;62600;55.732;37.662;2022-10-04T00:41:14;58.55;47.43;82.53;;
74244;Laerm;62600;55.732;37.662;2022-10-04T00:42:51;64.77;48.77;87.69;;
74244;Laerm;62600;55.732;37.662;2022-10-04T00:44:35;53.94;45.74;63.62;;
74244;Laerm;62600;55.732;37.662;2022-10-04T00:46:21;55.15;44.73;80.98;;
74244;Laerm;62600;55.732;37.662;2022-10-04T00:48:03;56.17;44.50;81.16;;
74244;Laerm;62600;55.732;37.662;2022-10-04T00:49:39;51.95;44.56;70.66;;
74244;Laerm;62600;55.732;37.662;2022-10-04T00:52:59;58.83;50.49;73.37;;
74244;Laerm;62600;55.732;37.662;2022-10-04T00:54:35;61.90;47.42;85.38;;
74244;Laerm;62600;55.732;37.662;2022-10-04T00:56:15;52.59;46.98;70.14;;
74244;Laerm;62600;55.732;37.662;2022-10-04T00:57:49;53.74;47.49;60.40;;
74244;Laerm;62600;55.732;37.662;2022-10-04T01:01:07;55.41;44.22;80.85;;
74244;Laerm;62600;55.732;37.662;2022-10-04T01:04:26;52.29;43.12;69.45;;
74244;Laerm;62600;55.732;37.662;2022-10-04T01:06:04;57.96;43.86;81.41;;
74244;Laerm;62600;55.732;37.662;2022-10-04T01:07:41;62.29;44.75;89.15;;
74244;Laerm;62600;55.732;37.662;2022-10-04T01:09:13;69.58;47.29;93.84;;
74244;Laerm;62600;55.732;37.662;2022-10-04T01:10:53;64.07;44.83;88.82;;
74244;Laerm;62600;55.732;37.662;2022-10-04T01:12:32;67.33;47.40;91.86;;
74244;Laerm;62600;55.732;37.662;2022-10-04T01:14:25;78.62;46.18;103.72;;
74244;Laerm;62600;55.732;37.662;2022-10-04T01:17:31;60.40;48.75;86.44;;
74244;Laerm;62600;55.732;37.662;2022-10-04T01:22:35;60.58;49.01;86.13;;
74244;Laerm;62600;55.732;37.662;2022-10-04T01:25:50;62.22;49.64;88.73;;
74244;Laerm;62600;55.732;37.662;2022-10-04T01:29:24;69.33;50.72;93.88;;
74244;Laerm;62600;55.732;37.662;2022-10-04T01:30:55;58.30;50.44;83.75;;
74244;Laerm;62600;55.732;37.662;2022-10-04T01:32:26;61.96;51.09;89.46;;
74244;Laerm;62600;55.732;37.662;2022-10-04T01:33:58;59.93;53.56;82.83;;
74244;Laerm;62600;55.732;37.662;2022-10-04T01:35:29;72.54;52.84;100.36;;
74244;Laerm;62600;55.732;37.662;2022-10-04T01:37:00;66.62;49.81;94.92;;
74244;Laerm;62600;55.732;37.662;2022-10-04T01:38:30;56.97;49.04;73.95;;
74244;Laerm;62600;55.732;37.662;2022-10-04T01:40:01;66.06;51.12;96.05;;
74244;Laerm;62600;55.732;37.662;2022-10-04T01:41:55;56.60;49.64;76.27;;
74244;Laerm;62600;55.732;37.662;2022-10-04T01:43:34;62.80;49.00;90.94;;
74244;Laerm;62600;55.732;37.662;2022-10-04T01:45:22;71.98;49.25;103.30;;
74244;Laerm;62600;55.732;37.662;2022-10-04T01:46:58;57.01;49.70;80.84;;
74244;Laerm;62600;55.732;37.662;2022-10-04T01:48:35;75.65;50.41;101.61;;
74244;Laerm;62600;55.732;37.662;2022-10-04T01:50:34;73.80;52.87;96.24;;
74244;Laerm;62600;55.732;37.662;2022-10-04T01:52:20;70.81;52.82;95.19;;
74244;Laerm;62600;55.732;37.662;2022-10-04T01:53:57;62.52;50.88;85.12;;
74244;Laerm;62600;55.732;37.662;2022-10-04T01:55:32;71.95;51.81;95.36;;
74244;Laerm;62600;55.732;37.662;2022-10-04T01:57:22;56.97;50.53;65.52;;
74244;Laerm;62600;55.732;37.662;2022-10-04T01:59:02;61.38;51.62;74.73;;
74244;Laerm;62600;55.732;37.662;2022-10-04T02:00:36;70.19;56.19;86.76;;
74244;Laerm;62600;55.732;37.662;2022-10-04T02:02:30;68.50;51.68;79.10;;
74244;Laerm;62600;55.732;37.662;2022-10-04T02:04:13;69.66;54.02;79.13;;
74244;Laerm;62600;55.732;37.662;2022-10-04T02:05:50;69.53;54.10;79.41;;
74244;Laerm;62600;55.732;37.662;2022-10-04T02:07:23;64.87;53.07;74.79;;
74244;Laerm;62600;55.732;37.662;2022-10-04T02:08:57;65.65;47.53;89.63;;
74244;Laerm;62600;55.732;37.662;2022-10-04T02:10:28;60.18;46.97;85.97;;
74244;Laerm;62600;55.732;37.662;2022-10-04T02:12:00;69.41;51.17;99.07;;
74244;Laerm;62600;55.732;37.662;2022-10-04T02:13:36;61.49;55.36;68.72;;
74244;Laerm;62600;55.732;37.662;2022-10-04T02:15:08;57.24;49.04;66.55;;
74244;Laerm;62600;55.732;37.662;2022-10-04T02:16:42;58.85;49.24;77.25;;
74244;Laerm;62600;55.732;37.662;2022-10-04T02:18:17;59.16;48.56;68.00;;
74244;Laerm;62600;55.732;37.662;2022-10-04T02:19:50;57.40;48.22;75.76;;
74244;Laerm;62600;55.732;37.662;2022-10-04T02:21:21;53.84;47.84;63.07;;
74244;Laerm;62600;55.732;37.662;2022-10-04T02:22:58;59.42;49.43;80.97;;
74244;Laerm;62600;55.732;37.662;2022-10-04T02:24:34;63.33;50.39;85.36;;
74244;Laerm;62600;55.732;37.662;2022-10-04T02:26:07;61.52;50.89;86.56;;
74244;Laerm;62600;55.732;37.662;2022-10-04T02:27:38;63.80;46.71;88.12;;
74244;Laerm;62600;55.732;37.662;2022-10-04T02:29:09;55.87;48.10;64.90;;
74244;Laerm;62600;55.732;37.662;2022-10-04T02:30:47;57.52;47.49;68.77;;
74244;Laerm;62600;55.732;37.662;2022-10-04T02:32:40;52.99;46.11;63.65;;
74244;Laerm;62600;55.732;37.662;2022-10-04T02:34:26;59.62;49.29;78.56;;
74244;Laerm;62600;55.732;37.662;2022-10-04T02:35:57;70.29;51.01;91.48;;
74244;Laerm;62600;55.732;37.662;2022-10-04T02:37:28;59.53;49.90;87.36;;
74244;Laerm;62600;55.732;37.662;2022-10-04T02:39:47;56.71;50.23;71.50;;
74244;Laerm;62600;55.732;37.662;2022-10-04T02:41:07;61.23;49.87;76.75;;
74244;Laerm;62600;55.732;37.662;2022-10-04T02:44:49;63.69;49.76;90.94;;
74244;Laerm;62600;55.732;37.662;2022-10-04T02:46:32;65.65;52.52;82.23;;
74244;Laerm;62600;55.732;37.662;2022-10-04T02:50:18;60.41;51.08;78.32;;
74244;Laerm;62600;55.732;37.662;2022-10-04T02:53:36;64.90;51.40;88.83;;
74244;Laerm;62600;55.732;37.662;2022-10-04T02:55:19;60.94;52.29;70.36;;
74244;Laerm;62600;55.732;37.662;2022-10-04T02:56:52;59.24;49.85;79.80;;
74244;Laerm;62600;55.732;37.662;2022-10-04T02:58:24;65.11;53.61;74.60;;
74244;Laerm;62600;55.732;37.662;2022-10-04T03:01:44;66.76;49.69;76.88;;
74244;Laerm;62600;55.732;37.662;2022-10-04T03:03:27;62.38;53.59;87.57;;
74244;Laerm;62600;55.732;37.662;2022-10-04T03:05:03;57.91;50.64;72.46;;
74244;Laerm;62600;55.732;37.662;2022-10-04T03:06:35;58.76;51.68;64.73;;
74244;Laerm;62600;55.732;37.662;2022-10-04T03:08:06;59.27;50.31;66.08;;
74244;Laerm;62600;55.732;37.662;2022-10-04T03:09:37;59.59;51.66;79.15;;
74244;Laerm;62600;55.732;37.662;2022-10-04T03:11:09;57.93;50.63;75.46;;
74244;Laerm;62600;55.732;37.662;2022-10-04T03:12:41;66.33;52.26;90.78;;
74244;Laerm;62600;55.732;37.662;2022-10-04T03:14:23;58.96;51.31;67.66;;
74244;Laerm;62600;55.732;37.662;2022-10-04T03:15:54;65.05;51.86;87.94;;
74244;Laerm;62600;55.732;37.662;2022-10-04T03:17:25;61.56;52.46;85.40;;
74244;Laerm;62600;55.732;37.662;2022-10-04T03:18:56;62.84;49.76;88.48;;
74244;Laerm;62600;55.732;37.662;2022-10-04T03:20:27;58.76;50.88;75.58;;
74244;Laerm;62600;55.732;37.662;2022-10-04T03:22:01;60.43;50.76;77.69;;
74244;Laerm;62600;55.732;37.662;2022-10-04T03:23:32;60.52;50.94;66.78;;
74244;Laerm;62600;55.732;37.662;2022-10-04T03:25:04;75.29;51.46;101.01;;
74244;Laerm;62600;55.732;37.662;2022-10-04T03:26:43;59.42;51.73;77.02;;
74244;Laerm;62600;55.732;37.662;2022-10-04T03:28:15;70.80;52.17;98.92;;
74244;Laerm;62600;55.732;37.662;2022-10-04T03:29:47;63.63;53.42;85.93;;
74244;Laerm;62600;55.732;37.662;2022-10-04T03:31:19;69.61;52.56;95.98;;
74244;Laerm;62600;55.732;37.662;2022-10-04T03:32:50;63.32;55.40;71.77;;
74244;Laerm;62600;55.732;37.662;2022-10-04T03:35:57;61.51;51.91;73.23;;
74244;Laerm;62600;55.732;37.662;2022-10-04T03:37:34;64.00;54.78;88.37;;
74244;Laerm;62600;55.732;37.662;2022-10-04T03:39:08;62.11;53.99;77.62;;
74244;Laerm;62600;55.732;37.662;2022-10-04T03:40:46;63.15;56.68;75.71;;
74244;Laerm;62600;55.732;37.662;2022-10-04T03:42:29;60.00;53.12;69.99;;
74244;Laerm;62600;55.732;37.662;2022-10-04T03:44:00;60.76;53.20;72.47;;
74244;Laerm;62600;55.732;37.662;2022-10-04T03:45:32;63.37;53.83;79.08;;
74244;Laerm;62600;55.732;37.662;2022-10-04T03:47:12;61.11;54.73;77.60;;
74244;Laerm;62600;55.732;37.662;2022-10-04T03:48:53;61.67;54.39;80.77;;
74244;Laerm;62600;55.732;37.662;2022-10-04T03:50:27;69.02;55.03;92.77;;
74244;Laerm;62600;55.732;37.662;2022-10-04T03:51:59;62.68;55.72;80.34;;
74244;Laerm;62600;55.732;37.662;2022-10-04T03:53:36;61.77;56.23;68.57;;
74244;Laerm;62600;55.732;37.662;2022-10-04T03:55:14;65.07;57.24;83.45;;
74244;Laerm;62600;55.732;37.662;2022-10-04T03:56:45;61.90;54.39;73.40;;
74244;Laerm;62600;55.732;37.662;2022-10-04T03:58:17;64.18;56.01;82.64;;
74244;Laerm;62600;55.732;37.662;2022-10-04T03:59:49;61.48;55.24;80.73;;
74244;Laerm;62600;55.732;37.662;2022-10-04T04:03:15;65.47;52.36;89.96;;
74244;Laerm;62600;55.732;37.662;2022-10-04T04:06:39;73.31;57.77;100.02;;
74244;Laerm;62600;55.732;37.662;2022-10-04T04:08:23;63.12;55.83;72.56;;
74244;Laerm;62600;55.732;37.662;2022-10-04T04:10:08;61.19;54.19;74.66;;
74244;Laerm;62600;55.732;37.662;2022-10-04T04:11:43;63.85;53.80;78.29;;
74244;Laerm;62600;55.732;37.662;2022-10-04T04:14:50;62.46;56.18;70.17;;
74244;Laerm;62600;55.732;37.662;2022-10-04T04:16:22;62.86;53.68;70.61;;
74244;Laerm;62600;55.732;37.662;2022-10-04T04:18:04;61.62;53.71;70.77;;
74244;Laerm;62600;55.732;37.662;2022-10-04T04:19:35;64.11;55.68;80.14;;
74244;Laerm;62600;55.732;37.662;2022-10-04T04:21:06;65.78;56.69;89.99;;
74244;Laerm;62600;55.732;37.662;2022-10-04T04:22:38;64.23;56.79;86.60;;
74244;Laerm;62600;55.732;37.662;2022-10-04T04:24:23;62.25;54.29;80.61;;
74244;Laerm;62600;55.732;37.662;2022-10-04T04:25:59;63.39;56.03;75.05;;
74244;Laerm;62600;55.732;37.662;2022-10-04T04:27:42;62.47;57.12;67.88;;
74244;Laerm;62600;55.732;37.662;2022-10-04T04:30:04;61.65;55.09;70.17;;
74244;Laerm;62600;55.732;37.662;2022-10-04T04:31:25;64.84;56.51;91.60;;
74244;Laerm;62600;55.732;37.662;2022-10-04T04:33:04;68.40;56.01;92.83;;
74244;Laerm;62600;55.732;37.662;2022-10-04T04:34:56;65.04;54.19;79.61;;
74244;Laerm;62600;55.732;37.662;2022-10-04T04:36:30;64.76;58.90;76.92;;
74244;Laerm;62600;55.732;37.662;2022-10-04T04:38:24;64.48;56.68;86.64;;
74244;Laerm;62600;55.732;37.662;2022-10-04T04:39:55;65.46;59.10;86.39;;
74244;Laerm;62600;55.732;37.662;2022-10-04T04:41:30;68.28;58.31;95.52;;
74244;Laerm;62600;55.732;37.662;2022-10-04T04:43:04;65.91;58.51;80.30;;
74244;Laerm;62600;55.732;37.662;2022-10-04T04:46:16;66.48;55.52;87.81;;
74244;Laerm;62600;55.732;37.662;2022-10-04T04:47:50;66.72;57.25;86.67;;
74244;Laerm;62600;55.732;37.662;2022-10-04T04:49:22;62.53;56.25;71.59;;
74244;Laerm;62600;55.732;37.662;2022-10-04T04:50:55;68.46;57.47;93.02;;
74244;Laerm;62600;55.732;37.662;2022-10-04T04:52:28;62.63;54.80;74.11;;
74244;Laerm;62600;55.732;37.662;2022-10-04T04:54:01;63.90;58.97;72.66;;
74244;Laerm;62600;55.732;37.662;2022-10-04T04:55:45;63.46;58.41;88.21;;
74244;Laerm;62600;55.732;37.662;2022-10-04T04:57:18;62.45;56.39;69.86;;
74244;Laerm;62600;55.732;37.662;2022-10-04T04:58:50;65.22;58.70;76.06;;
74244;Laerm;62600;55.732;37.662;2022-10-04T05:00:28;69.06;57.31;97.28;;
74244;Laerm;62600;55.732;37.662;2022-10-04T05:01:59;66.14;57.10;93.09;;
74244;Laerm;62600;55.732;37.662;2022-10-04T05:03:29;67.93;55.80;83.04;;
74244;Laerm;62600;55.732;37.662;2022-10-04T05:05:30;63.03;55.48;69.81;;
74244;Laerm;62600;55.732;37.662;2022-10-04T05:07:11;61.74;55.74;77.82;;
74244;Laerm;62600;55.732;37.662;2022-10-04T05:08:48;62.57;55.48;72.98;;
74244;Laerm;62600;55.732;37.662;2022-10-04T05:10:32;64.79;56.72;86.58;;
74244;Laerm;62600;55.732;37.662;2022-10-04T05:12:13;63.96;58.92;69.44;;
74244;Laerm;62600;55.732;37.662;2022-10-04T05:13:52;63.76;58.79;70.42;;
74244;Laerm;62600;55.732;37.662;2022-10-04T05:15:26;62.80;57.52;80.54;;
74244;Laerm;62600;55.732;37.662;2022-10-04T05:17:00;67.67;58.96;83.39;;
74244;Laerm;62600;55.732;37.662;2022-10-04T05:18:31;67.58;56.60;90.35;;
74244;Laerm;62600;55.732;37.662;2022-10-04T05:20:03;65.42;59.18;84.60;;
74244;Laerm;62600;55.732;37.662;2022-10-04T05:21:34;64.69;57.86;75.81;;
74244;Laerm;62600;55.732;37.662;2022-10-04T05:23:11;65.56;55.88;84.85;;
74244;Laerm;62600;55.732;37.662;2022-10-04T05:24:43;67.78;58.69;92.99;;
74244;Laerm;62600;55.732;37.662;2022-10-04T05:26:21;64.47;56.71;84.71;;
74244;Laerm;62600;55.732;37.662;2022-10-04T05:27:54;63.43;57.91;75.44;;
74244;Laerm;62600;55.732;37.662;2022-10-04T05:29:28;64.03;60.07;73.65;;
74244;Laerm;62600;55.732;37.662;2022-10-04T05:31:25;63.35;57.46;68.23;;
74244;Laerm;62600;55.732;37.662;2022-10-04T05:33:05;63.02;58.04;71.59;;
74244;Laerm;62600;55.732;37.662;2022-10-04T05:34:41;64.57;58.57;81.48;;
74244;Laerm;62600;55.732;37.662;2022-10-04T05:38:31;64.43;58.63;77.07;;
74244;Laerm;62600;55.732;37.662;2022-10-04T05:40:26;65.03;57.57;89.70;;
74244;Laerm;62600;55.732;37.662;2022-10-04T05:42:16;63.67;58.72;74.96;;
74244;Laerm;62600;55.732;37.662;2022-10-04T05:43:50;63.19;58.01;78.02;;
74244;Laerm;62600;55.732;37.662;2022-10-04T05:45:23;63.52;57.65;73.57;;
74244;Laerm;62600;55.732;37.662;2022-10-04T05:46:58;66.31;58.73;90.26;;
74244;Laerm;62600;55.732;37.662;2022-10-04T05:48:29;63.53;58.69;73.61;;
74244;Laerm;62600;55.732;37.662;2022-10-04T05:49:59;64.50;60.36;75.11;;
74244;Laerm;62600;55.732;37.662;2022-10-04T05:51:34;70.29;59.13;90.90;;
74244;Laerm;62600;55.732;37.662;2022-10-04T05:53:22;63.43;58.45;83.98;;
74244;Laerm;62600;55.732;37.662;2022-10-04T06:00:44;69.57;59.54;86.08;;
74244;Laerm;62600;55.732;37.662;2022-10-04T06:11:57;64.45;58.62;79.70;;
74244;Laerm;62600;55.732;37.662;2022-10-04T06:22:16;65.94;57.51;86.53;;
74244;Laerm;62600;55.732;37.662;2022-10-04T06:25:27;64.34;58.99;81.36;;
74244;Laerm;62600;55.732;37.662;2022-10-04T06:27:09;64.92;58.09;81.55;;
74244;Laerm;62600;55.732;37.662;2022-10-04T06:28:56;64.93;58.17;80.44;;
74244;Laerm;62600;55.732;37.662;2022-10-04T06:31:03;64.20;58.82;81.08;;
74244;Laerm;62600;55.732;37.662;2022-10-04T06:32:53;66.01;60.57;78.99;;
74244;Laerm;62600;55.732;37.662;2022-10-04T06:36:34;67.98;57.98;93.27;;
74244;Laerm;62600;55.732;37.662;2022-10-04T06:41:00;66.17;57.85;82.66;;
74244;Laerm;62600;55.732;37.662;2022-10-04T06:45:38;66.87;57.08;91.56;;
74244;Laerm;62600;55.732;37.662;2022-10-04T06:46:51;65.09;56.10;78.70;;
74244;Laerm;62600;55.732;37.662;2022-10-04T06:58:12;63.96;59.07;75.57;;
74244;Laerm;62600;55.732;37.662;2022-10-04T07:01:31;69.22;58.56;90.60;;
74244;Laerm;62600;55.732;37.662;2022-10-04T07:03:18;63.51;56.91;82.99;;
74244;Laerm;62600;55.732;37.662;2022-10-04T07:04:56;62.03;56.45;66.75;;
74244;Laerm;62600;55.732;37.662;2022-10-04T07:06:35;64.88;57.62;75.67;;
74244;Laerm;62600;55.732;37.662;2022-10-04T07:09:41;70.91;58.18;94.60;;
74244;Laerm;62600;55.732;37.662;2022-10-04T07:12:47;65.87;56.66;92.11;;
74244;Laerm;62600;55.732;37.662;2022-10-04T07:14:25;65.26;56.37;90.29;;
74244;Laerm;62600;55.732;37.662;2022-10-04T07:17:39;64.98;58.96;80.57;;
74244;Laerm;62600;55.732;37.662;2022-10-04T07:20:51;68.91;57.48;91.35;;
74244;Laerm;62600;55.732;37.662;2022-10-04T07:24:00;65.03;59.91;82.57;;
74244;Laerm;62600;55.732;37.662;2022-10-04T07:25:35;62.84;56.75;70.40;;
74244;Laerm;62600;55.732;37.662;2022-10-04T07:27:16;63.35;58.88;70.90;;
74244;Laerm;62600;55.732;37.662;2022-10-04T07:28:47;64.86;59.42;84.42;;
74244;Laerm;62600;55.732;37.662;2022-10-04T07:30:42;71.85;57.35;95.13;;
74244;Laerm;62600;55.732;37.662;2022-10-04T07:32:24;62.76;59.28;68.99;;
74244;Laerm;62600;55.732;37.662;2022-10-04T07:34:20;62.48;57.36;66.79;;
74244;Laerm;62600;55.732;37.662;2022-10-04T07:36:06;78.22;59.99;103.54;;
74244;Laerm;62600;55.732;37.662;2022-10-04T07:39:49;63.95;59.00;72.59;;
74244;Laerm;62600;55.732;37.662;2022-10-04T07:41:34;64.72;59.59;88.03;;
74244;Laerm;62600;55.732;37.662;2022-10-04T07:43:12;63.44;59.03;72.35;;
74244;Laerm;62600;55.732;37.662;2022-10-04T07:45:08;63.08;57.74;70.26;;
74244;Laerm;62600;55.732;37.662;2022-10-04T07:48:31;63.89;57.77;79.36;;
74244;Laerm;62600;55.732;37.662;2022-10-04T07:50:25;64.78;57.89;87.51;;
74244;Laerm;62600;55.732;37.662;2022-10-04T07:52:39;65.58;57.24;84.51;;
74244;Laerm;62600;55.732;37.662;2022-10-04T07:54:20;62.51;55.16;71.07;;
74244;Laerm;62600;55.732;37.662;2022-10-04T08:01:00;62.73;56.10;82.61;;
74244;Laerm;62600;55.732;37.662;2022-10-04T08:04:37;64.21;57.76;75.56;;
74244;Laerm;62600;55.732;37.662;2022-10-04T08:10:13;64.42;58.53;81.89;;
74244;Laerm;62600;55.732;37.662;2022-10-04T08:12:03;69.51;56.01;97.16;;
74244;Laerm;62600;55.732;37.662;2022-10-04T08:18:00;63.29;57.01;68.44;;
74244;Laerm;62600;55.732;37.662;2022-10-04T08:19:32;62.41;57.08;79.77;;
74244;Laerm;62600;55.732;37.662;2022-10-04T08:21:13;70.64;55.82;94.51;;
74244;Laerm;62600;55.732;37.662;2022-10-04T08:23:07;64.20;57.82;70.43;;
74244;Laerm;62600;55.732;37.662;2022-10-04T08:31:50;76.26;61.99;97.59;;
74244;Laerm;62600;55.732;37.662;2022-10-04T08:33:30;67.39;59.07;90.73;;
74244;Laerm;62600;55.732;37.662;2022-10-04T08:37:09;66.13;59.66;79.03;;
74244;Laerm;62600;55.732;37.662;2022-10-04T08:38:53;64.65;59.11;78.86;;
74244;Laerm;62600;55.732;37.662;2022-10-04T09:07:46;65.72;58.61;88.58;;
74244;Laerm;62600;55.732;37.662;2022-10-04T09:16:48;63.51;58.10;76.12;;
74244;Laerm;62600;55.732;37.662;2022-10-04T09:18:44;75.31;60.39;97.98;;
74244;Laerm;62600;55.732;37.662;2022-10-04T09:20:27;65.62;60.22;80.24;;
74244;Laerm;62600;55.732;37.662;2022-10-04T09:26:18;65.49;58.04;83.26;;
74244;Laerm;62600;55.732;37.662;2022-10-04T09:30:03;66.07;58.67;87.89;;
74244;Laerm;62600;55.732;37.662;2022-10-04T09:49:44;64.67;57.34;86.31;;
74244;Laerm;62600;55.732;37.662;2022-10-04T10:00:25;72.68;57.10;97.33;;
74244;Laerm;62600;55.732;37.662;2022-10-04T10:04:37;71.18;58.10;98.15;;
74244;Laerm;62600;55.732;37.662;2022-10-04T10:10:00;62.80;57.61;74.61;;
74244;Laerm;62600;55.732;37.662;2022-10-04T10:12:08;70.40;57.93;95.95;;
74244;Laerm;62600;55.732;37.662;2022-10-04T10:17:40;76.61;57.82;101.32;;
74244;Laerm;62600;55.732;37.662;2022-10-04T10:19:57;65.19;58.51;83.94;;
74244;Laerm;62600;55.732;37.662;2022-10-04T10:21:54;63.82;59.24;82.77;;
74244;Laerm;62600;55.732;37.662;2022-10-04T10:31:25;68.85;58.98;93.94;;
74244;Laerm;62600;55.732;37.662;2022-10-04T10:39:03;67.54;61.93;85.57;;
74244;Laerm;62600;55.732;37.662;2022-10-04T10:46:19;63.78;59.43;74.10;;
74244;Laerm;62600;55.732;37.662;2022-10-04T10:47:59;64.73;59.94;69.51;;
74244;Laerm;62600;55.732;37.662;2022-10-04T10:56:59;65.84;61.03;72.86;;
74244;Laerm;62600;55.732;37.662;2022-10-04T11:00:51;65.93;60.82;79.88;;
74244;Laerm;62600;55.732;37.662;2022-10-04T11:02:51;64.92;56.47;73.14;;
74244;Laerm;62600;55.732;37.662;2022-10-04T11:12:33;66.30;61.49;72.99;;
74244;Laerm;62600;55.732;37.662;2022-10-04T11:16:27;65.99;61.50;72.11;;
74244;Laerm;62600;55.732;37.662;2022-10-04T11:18:28;65.23;59.53;70.76;;
74244;Laerm;62600;55.732;37.662;2022-10-04T11:28:06;65.22;58.63;72.62;;
74244;Laerm;62600;55.732;37.662;2022-10-04T11:42:18;64.80;60.15;73.11;;
74244;Laerm;62600;55.732;37.662;2022-10-04T11:47:48;66.09;61.52;81.15;;
74244;Laerm;62600;55.732;37.662;2022-10-04T11:50:26;65.08;57.99;72.66;;
74244;Laerm;62600;55.732;37.662;2022-10-04T11:53:27;65.30;57.23;72.72;;
74244;Laerm;62600;55.732;37.662;2022-10-04T11:55:29;65.86;60.22;74.12;;
74244;Laerm;62600;55.732;37.662;2022-10-04T11:57:24;65.64;56.91;74.52;;
74244;Laerm;62600;55.732;37.662;2022-10-04T11:59:17;65.38;57.79;70.27;;
74244;Laerm;62600;55.732;37.662;2022-10-04T12:11:09;64.92;59.02;69.67;;
74244;Laerm;62600;55.732;37.662;2022-10-04T12:22:31;64.25;57.41;69.28;;
74244;Laerm;62600;55.732;37.662;2022-10-04T12:38:06;63.68;55.80;72.23;;
74244;Laerm;62600;55.732;37.662;2022-10-04T12:39:43;65.11;58.72;74.89;;
74244;Laerm;62600;55.732;37.662;2022-10-04T12:41:37;65.52;60.18;75.66;;
74244;Laerm;62600;55.732;37.662;2022-10-04T12:43:43;63.49;56.80;69.00;;
74244;Laerm;62600;55.732;37.662;2022-10-04T12:50:02;64.02;58.44;69.68;;
74244;Laerm;62600;55.732;37.662;2022-10-04T12:52:23;64.68;56.98;75.15;;
74244;Laerm;62600;55.732;37.662;2022-10-04T12:53:56;63.32;55.70;70.03;;
74244;Laerm;62600;55.732;37.662;2022-10-04T12:57:42;65.37;58.71;73.74;;
74244;Laerm;62600;55.732;37.662;2022-10-04T13:01:23;63.45;57.27;74.93;;
74244;Laerm;62600;55.732;37.662;2022-10-04T13:04:58;64.02;58.29;68.10;;
74244;Laerm;62600;55.732;37.662;2022-10-04T13:15:25;63.69;57.24;67.42;;
74244;Laerm;62600;55.732;37.662;2022-10-04T13:17:21;63.38;57.94;69.23;;
74244;Laerm;62600;55.732;37.662;2022-10-04T13:22:49;63.61;58.06;72.22;;
74244;Laerm;62600;55.732;37.662;2022-10-04T13:24:36;64.17;56.80;69.80;;
74244;Laerm;62600;55.732;37.662;2022-10-04T13:27:07;68.25;58.26;93.12;;
74244;Laerm;62600;55.732;37.662;2022-10-04T13:36:22;63.30;56.27;70.70;;
74244;Laerm;62600;55.732;37.662;2022-10-04T13:41:23;63.44;57.80;70.26;;
74244;Laerm;62600;55.732;37.662;2022-10-04T13:47:27;63.21;58.27;70.71;;
74244;Laerm;62600;55.732;37.662;2022-10-04T13:50:32;64.22;57.48;71.65;;
74244;Laerm;62600;55.732;37.662;2022-10-04T13:54:27;63.74;57.71;79.36;;
74244;Laerm;62600;55.732;37.662;2022-10-04T13:58:33;64.81;57.65;74.74;;
74244;Laerm;62600;55.732;37.662;2022-10-04T14:00:13;63.60;56.75;71.92;;
74244;Laerm;62600;55.732;37.662;2022-10-04T14:07:40;64.78;57.92;71.08;;
74244;Laerm;62600;55.732;37.662;2022-10-04T14:14:38;64.58;59.29;72.79;;
74244;Laerm;62600;55.732;37.662;2022-10-04T14:16:24;65.84;58.16;71.95;;
74244;Laerm;62600;55.732;37.662;2022-10-04T14:35:07;63.64;57.35;71.68;;
74244;Laerm;62600;55.732;37.662;2022-10-04T14:38:59;63.65;58.13;70.89;;
74244;Laerm;62600;55.732;37.662;2022-10-04T14:46:22;63.13;56.05;68.55;;
74244;Laerm;62600;55.732;37.662;2022-10-04T14:50:20;65.49;60.19;80.22;;
74244;Laerm;62600;55.732;37.662;2022-10-04T15:01:30;62.79;55.72;69.03;;
74244;Laerm;62600;55.732;37.662;2022-10-04T15:03:28;65.78;59.35;80.28;;
74244;Laerm;62600;55.732;37.662;2022-10-04T15:11:38;63.06;56.79;76.98;;
74244;Laerm;62600;55.732;37.662;2022-10-04T15:13:30;62.75;57.13;66.95;;
74244;Laerm;62600;55.732;37.662;2022-10-04T15:16:49;64.08;56.85;78.58;;
74244;Laerm;62600;55.732;37.662;2022-10-04T15:22:12;63.56;55.60;75.64;;
74244;Laerm;62600;55.732;37.662;2022-10-04T15:23:53;64.43;56.66;69.75;;
74244;Laerm;62600;55.732;37.662;2022-10-04T15:35:45;63.08;55.46;70.86;;
74244;Laerm;62600;55.732;37.662;2022-10-04T15:39:02;63.40;56.03;75.15;;
74244;Laerm;62600;55.732;37.662;2022-10-04T15:41:00;65.16;59.31;82.49;;
74244;Laerm;62600;55.732;37.662;2022-10-04T15:42:33;62.52;57.00;71.23;;
74244;Laerm;62600;55.732;37.662;2022-10-04T15:56:56;65.46;57.49;80.58;;
74244;Laerm;62600;55.732;37.662;2022-10-04T16:00:24;63.46;56.72;81.06;;
74244;Laerm;62600;55.732;37.662;2022-10-04T16:05:58;63.15;56.67;74.14;;
74244;Laerm;62600;55.732;37.662;2022-10-04T16:14:22;62.99;55.51;74.03;;
74244;Laerm;62600;55.732;37.662;2022-10-04T16:17:50;63.88;54.90;73.86;;
74244;Laerm;62600;55.732;37.662;2022-10-04T16:19:37;63.04;56.54;73.11;;
74244;Laerm;62600;55.732;37.662;2022-10-04T16:30:15;61.30;55.19;70.86;;
74244;Laerm;62600;55.732;37.662;2022-10-04T16:31:53;62.00;54.27;73.30;;
74244;Laerm;62600;55.732;37.662;2022-10-04T16:33:31;62.65;55.00;69.63;;
74244;Laerm;62600;55.732;37.662;2022-10-04T16:37:16;63.73;58.14;76.08;;
74244;Laerm;62600;55.732;37.662;2022-10-04T16:38:50;62.69;55.87;72.75;;
74244;Laerm;62600;55.732;37.662;2022-10-04T16:43:09;61.65;55.31;77.54;;
74244;Laerm;62600;55.732;37.662;2022-10-04T16:44:46;61.58;53.10;68.56;;
74244;Laerm;62600;55.732;37.662;2022-10-04T16:46:33;61.90;55.87;68.02;;